sensor_id;sensor_type;location;lat;lon;timestamp;pressure;altitude;pressure_sealevel;temperature;humidity
70217;BME280;65567;55.684;37.570;2023-04-25T00:01:32;98944.44;;;20.75;27.11
70217;BME280;65567;55.684;37.570;2023-04-25T00:04:00;98947.34;;;21.00;26.50
70217;BME280;65567;55.684;37.570;2023-04-25T00:06:26;98950.53;;;20.85;26.71
70217;BME280;65567;55.684;37.570;2023-04-25T00:08:52;98963.47;;;20.52;27.15
70217;BME280;65567;55.684;37.570;2023-04-25T00:11:18;98968.09;;;20.12;27.55
70217;BME280;65567;55.684;37.570;2023-04-25T00:13:44;98969.44;;;19.79;28.03
70217;BME280;65567;55.684;37.570;2023-04-25T00:16:12;98970.44;;;19.58;28.34
70217;BME280;65567;55.684;37.570;2023-04-25T00:18:41;98964.03;;;19.51;28.52
70217;BME280;65567;55.684;37.570;2023-04-25T00:21:07;98969.09;;;19.25;28.88
70217;BME280;65567;55.684;37.570;2023-04-25T00:23:33;98972.59;;;19.35;29.39
70217;BME280;65567;55.684;37.570;2023-04-25T00:26:02;98965.31;;;19.37;29.40
70217;BME280;65567;55.684;37.570;2023-04-25T00:28:28;98958.47;;;19.25;29.28
70217;BME280;65567;55.684;37.570;2023-04-25T00:30:54;98963.75;;;19.64;29.15
70217;BME280;65567;55.684;37.570;2023-04-25T00:33:20;98965.22;;;19.96;28.20
70217;BME280;65567;55.684;37.570;2023-04-25T00:35:46;98962.75;;;19.65;28.82
70217;BME280;65567;55.684;37.570;2023-04-25T00:38:12;98961.44;;;19.79;28.66
70217;BME280;65567;55.684;37.570;2023-04-25T00:40:38;98960.03;;;19.94;28.32
70217;BME280;65567;55.684;37.570;2023-04-25T00:43:04;98951.91;;;19.96;28.61
70217;BME280;65567;55.684;37.570;2023-04-25T00:45:30;98957.44;;;20.22;28.32
70217;BME280;65567;55.684;37.570;2023-04-25T00:47:56;98959.22;;;20.32;28.29
70217;BME280;65567;55.684;37.570;2023-04-25T00:50:23;98956.69;;;20.58;28.19
70217;BME280;65567;55.684;37.570;2023-04-25T00:52:49;98959.88;;;20.89;27.48
70217;BME280;65567;55.684;37.570;2023-04-25T00:55:16;98959.16;;;20.69;27.59
70217;BME280;65567;55.684;37.570;2023-04-25T00:57:42;98957.63;;;20.01;28.60
70217;BME280;65567;55.684;37.570;2023-04-25T01:00:09;98956.75;;;20.10;28.72
70217;BME280;65567;55.684;37.570;2023-04-25T01:02:37;98957.38;;;20.04;28.53
70217;BME280;65567;55.684;37.570;2023-04-25T01:05:03;98959.09;;;20.23;28.47
70217;BME280;65567;55.684;37.570;2023-04-25T01:07:29;98950.28;;;20.51;28.27
70217;BME280;65567;55.684;37.570;2023-04-25T01:09:55;98947.91;;;20.75;27.90
70217;BME280;65567;55.684;37.570;2023-04-25T01:12:22;98940.97;;;20.64;27.87
70217;BME280;65567;55.684;37.570;2023-04-25T01:14:48;98955.50;;;20.14;28.45
70217;BME280;65567;55.684;37.570;2023-04-25T01:17:14;98956.09;;;20.08;29.03
70217;BME280;65567;55.684;37.570;2023-04-25T01:19:41;98952.25;;;20.21;28.53
70217;BME280;65567;55.684;37.570;2023-04-25T01:22:07;98944.16;;;19.85;29.38
70217;BME280;65567;55.684;37.570;2023-04-25T01:24:35;98939.81;;;20.11;28.88
70217;BME280;65567;55.684;37.570;2023-04-25T01:27:03;98936.00;;;20.24;28.70
70217;BME280;65567;55.684;37.570;2023-04-25T01:29:30;98935.88;;;20.16;28.78
70217;BME280;65567;55.684;37.570;2023-04-25T01:31:57;98928.41;;;20.01;29.01
70217;BME280;65567;55.684;37.570;2023-04-25T01:34:24;98922.09;;;20.30;28.54
70217;BME280;65567;55.684;37.570;2023-04-25T01:36:51;98928.50;;;20.37;28.47
70217;BME280;65567;55.684;37.570;2023-04-25T01:39:17;98924.13;;;20.18;28.65
70217;BME280;65567;55.684;37.570;2023-04-25T01:41:43;98924.50;;;19.95;28.98
70217;BME280;65567;55.684;37.570;2023-04-25T01:44:10;98938.75;;;20.04;29.05
70217;BME280;65567;55.684;37.570;2023-04-25T01:46:36;98936.16;;;20.22;28.86
70217;BME280;65567;55.684;37.570;2023-04-25T01:49:02;98931.75;;;20.31;28.67
70217;BME280;65567;55.684;37.570;2023-04-25T01:51:28;98934.38;;;20.41;28.56
70217;BME280;65567;55.684;37.570;2023-04-25T01:53:55;98926.03;;;20.26;28.57
70217;BME280;65567;55.684;37.570;2023-04-25T01:56:21;98934.81;;;20.08;28.66
70217;BME280;65567;55.684;37.570;2023-04-25T01:58:46;98919.50;;;19.83;29.06
70217;BME280;65567;55.684;37.570;2023-04-25T02:01:12;98932.34;;;19.30;30.26
70217;BME280;65567;55.684;37.570;2023-04-25T02:03:38;98926.31;;;18.98;30.53
70217;BME280;65567;55.684;37.570;2023-04-25T02:06:04;98921.25;;;18.76;31.05
70217;BME280;65567;55.684;37.570;2023-04-25T02:08:30;98923.72;;;18.58;31.41
70217;BME280;65567;55.684;37.570;2023-04-25T02:10:57;98918.00;;;18.53;31.45
70217;BME280;65567;55.684;37.570;2023-04-25T02:13:22;98927.06;;;18.50;31.61
70217;BME280;65567;55.684;37.570;2023-04-25T02:15:48;98923.22;;;18.83;31.21
70217;BME280;65567;55.684;37.570;2023-04-25T02:18:14;98918.22;;;19.00;30.93
70217;BME280;65567;55.684;37.570;2023-04-25T02:20:42;98922.41;;;19.12;30.65
70217;BME280;65567;55.684;37.570;2023-04-25T02:23:08;98917.25;;;18.91;30.99
70217;BME280;65567;55.684;37.570;2023-04-25T02:25:34;98911.88;;;18.81;31.25
70217;BME280;65567;55.684;37.570;2023-04-25T02:28:00;98914.97;;;18.87;31.15
70217;BME280;65567;55.684;37.570;2023-04-25T02:30:26;98913.72;;;18.91;31.26
70217;BME280;65567;55.684;37.570;2023-04-25T02:32:52;98918.50;;;19.17;30.81
70217;BME280;65567;55.684;37.570;2023-04-25T02:35:18;98919.19;;;19.19;30.94
70217;BME280;65567;55.684;37.570;2023-04-25T02:37:45;98921.28;;;19.25;30.67
70217;BME280;65567;55.684;37.570;2023-04-25T02:40:11;98916.81;;;19.35;30.49
70217;BME280;65567;55.684;37.570;2023-04-25T02:42:36;98916.78;;;19.55;30.51
70217;BME280;65567;55.684;37.570;2023-04-25T02:45:02;98916.53;;;19.38;30.56
70217;BME280;65567;55.684;37.570;2023-04-25T02:47:29;98920.00;;;19.39;30.83
70217;BME280;65567;55.684;37.570;2023-04-25T02:49:55;98916.97;;;19.81;30.12
70217;BME280;65567;55.684;37.570;2023-04-25T02:52:20;98922.16;;;20.20;29.69
70217;BME280;65567;55.684;37.570;2023-04-25T02:54:46;98919.72;;;20.55;29.25
70217;BME280;65567;55.684;37.570;2023-04-25T02:57:12;98912.41;;;21.03;28.80
70217;BME280;65567;55.684;37.570;2023-04-25T02:59:38;98915.34;;;21.36;27.92
70217;BME280;65567;55.684;37.570;2023-04-25T03:02:04;98920.41;;;21.47;27.76
70217;BME280;65567;55.684;37.570;2023-04-25T03:04:30;98921.09;;;21.05;27.90
70217;BME280;65567;55.684;37.570;2023-04-25T03:06:56;98908.09;;;20.84;28.14
70217;BME280;65567;55.684;37.570;2023-04-25T03:09:22;98921.03;;;20.69;28.46
70217;BME280;65567;55.684;37.570;2023-04-25T03:11:47;98923.28;;;20.73;29.16
70217;BME280;65567;55.684;37.570;2023-04-25T03:14:13;98917.50;;;21.14;28.40
70217;BME280;65567;55.684;37.570;2023-04-25T03:16:39;98919.44;;;21.30;28.05
70217;BME280;65567;55.684;37.570;2023-04-25T03:19:05;98927.22;;;21.05;28.38
70217;BME280;65567;55.684;37.570;2023-04-25T03:21:33;98935.63;;;20.74;28.95
70217;BME280;65567;55.684;37.570;2023-04-25T03:24:01;98936.59;;;20.45;29.44
70217;BME280;65567;55.684;37.570;2023-04-25T03:26:27;98935.56;;;20.28;29.45
70217;BME280;65567;55.684;37.570;2023-04-25T03:28:53;98936.44;;;20.19;29.98
70217;BME280;65567;55.684;37.570;2023-04-25T03:31:20;98934.41;;;20.31;29.78
70217;BME280;65567;55.684;37.570;2023-04-25T03:33:46;98934.03;;;20.26;30.08
70217;BME280;65567;55.684;37.570;2023-04-25T03:36:12;98938.66;;;20.24;30.29
70217;BME280;65567;55.684;37.570;2023-04-25T03:38:37;98936.81;;;20.34;30.08
70217;BME280;65567;55.684;37.570;2023-04-25T03:41:03;98949.25;;;19.96;30.81
70217;BME280;65567;55.684;37.570;2023-04-25T03:43:29;98941.81;;;20.09;30.63
70217;BME280;65567;55.684;37.570;2023-04-25T03:45:55;98935.47;;;20.20;30.66
70217;BME280;65567;55.684;37.570;2023-04-25T03:48:21;98933.47;;;20.78;30.11
70217;BME280;65567;55.684;37.570;2023-04-25T03:50:50;98931.78;;;21.31;29.27
70217;BME280;65567;55.684;37.570;2023-04-25T03:53:16;98936.91;;;21.95;31.54
70217;BME280;65567;55.684;37.570;2023-04-25T03:55:41;98933.19;;;22.57;29.83
70217;BME280;65567;55.684;37.570;2023-04-25T03:58:07;98939.88;;;22.69;28.69
70217;BME280;65567;55.684;37.570;2023-04-25T04:00:35;98929.63;;;23.16;29.88
70217;BME280;65567;55.684;37.570;2023-04-25T04:03:01;98927.22;;;23.95;27.93
70217;BME280;65567;55.684;37.570;2023-04-25T04:05:27;98933.22;;;24.05;26.32
70217;BME280;65567;55.684;37.570;2023-04-25T04:07:53;98924.34;;;24.76;26.69
70217;BME280;65567;55.684;37.570;2023-04-25T04:10:19;98921.38;;;25.17;25.17
70217;BME280;65567;55.684;37.570;2023-04-25T04:12:45;98924.22;;;25.77;25.04
70217;BME280;65567;55.684;37.570;2023-04-25T04:15:11;98924.25;;;26.07;24.76
70217;BME280;65567;55.684;37.570;2023-04-25T04:17:37;98917.28;;;26.28;24.51
70217;BME280;65567;55.684;37.570;2023-04-25T04:20:04;98920.63;;;26.15;23.67
70217;BME280;65567;55.684;37.570;2023-04-25T04:22:31;98933.28;;;25.61;24.06
70217;BME280;65567;55.684;37.570;2023-04-25T04:24:57;98917.31;;;25.21;24.46
70217;BME280;65567;55.684;37.570;2023-04-25T04:27:23;98916.75;;;25.11;24.83
70217;BME280;65567;55.684;37.570;2023-04-25T04:29:49;98928.66;;;25.08;24.75
70217;BME280;65567;55.684;37.570;2023-04-25T04:32:17;98928.06;;;25.45;24.59
70217;BME280;65567;55.684;37.570;2023-04-25T04:34:43;98924.44;;;26.05;24.23
70217;BME280;65567;55.684;37.570;2023-04-25T04:37:10;98923.19;;;26.90;23.28
70217;BME280;65567;55.684;37.570;2023-04-25T04:39:38;98928.81;;;26.95;23.35
70217;BME280;65567;55.684;37.570;2023-04-25T04:42:04;98932.00;;;26.47;23.70
70217;BME280;65567;55.684;37.570;2023-04-25T04:44:30;98928.75;;;27.10;22.88
70217;BME280;65567;55.684;37.570;2023-04-25T04:47:01;98923.00;;;27.63;22.11
70217;BME280;65567;55.684;37.570;2023-04-25T04:49:27;98920.38;;;27.76;22.41
70217;BME280;65567;55.684;37.570;2023-04-25T04:51:53;98925.81;;;28.18;21.51
70217;BME280;65567;55.684;37.570;2023-04-25T04:54:20;98911.97;;;27.86;21.61
70217;BME280;65567;55.684;37.570;2023-04-25T04:56:45;98917.09;;;27.74;21.94
70217;BME280;65567;55.684;37.570;2023-04-25T04:59:11;98919.78;;;28.09;21.29
70217;BME280;65567;55.684;37.570;2023-04-25T05:01:37;98913.63;;;28.22;21.27
70217;BME280;65567;55.684;37.570;2023-04-25T05:04:04;98909.69;;;28.66;21.21
70217;BME280;65567;55.684;37.570;2023-04-25T05:06:31;98917.81;;;29.07;20.65
70217;BME280;65567;55.684;37.570;2023-04-25T05:08:57;98907.66;;;29.22;20.31
70217;BME280;65567;55.684;37.570;2023-04-25T05:11:24;98906.41;;;29.18;20.31
70217;BME280;65567;55.684;37.570;2023-04-25T05:13:53;98906.84;;;29.15;19.87
70217;BME280;65567;55.684;37.570;2023-04-25T05:16:19;98908.91;;;29.13;19.69
70217;BME280;65567;55.684;37.570;2023-04-25T05:18:46;98898.31;;;29.25;19.76
70217;BME280;65567;55.684;37.570;2023-04-25T05:21:12;98909.13;;;29.58;19.86
70217;BME280;65567;55.684;37.570;2023-04-25T05:23:38;98894.81;;;29.38;19.54
70217;BME280;65567;55.684;37.570;2023-04-25T05:26:04;98906.84;;;29.22;19.81
70217;BME280;65567;55.684;37.570;2023-04-25T05:28:30;98902.91;;;29.44;19.24
70217;BME280;65567;55.684;37.570;2023-04-25T05:30:56;98902.28;;;29.56;19.26
70217;BME280;65567;55.684;37.570;2023-04-25T05:33:23;98902.06;;;29.50;19.38
70217;BME280;65567;55.684;37.570;2023-04-25T05:35:49;98912.81;;;29.84;19.36
70217;BME280;65567;55.684;37.570;2023-04-25T05:38:15;98901.66;;;30.32;18.93
70217;BME280;65567;55.684;37.570;2023-04-25T05:40:41;98900.94;;;30.57;18.92
70217;BME280;65567;55.684;37.570;2023-04-25T05:43:07;98916.50;;;30.69;18.16
70217;BME280;65567;55.684;37.570;2023-04-25T05:45:33;98898.66;;;30.61;18.08
70217;BME280;65567;55.684;37.570;2023-04-25T05:47:59;98891.53;;;30.67;18.76
70217;BME280;65567;55.684;37.570;2023-04-25T05:50:25;98894.41;;;30.72;18.39
70217;BME280;65567;55.684;37.570;2023-04-25T05:52:51;98897.81;;;30.60;18.48
70217;BME280;65567;55.684;37.570;2023-04-25T05:55:17;98892.00;;;30.57;18.55
70217;BME280;65567;55.684;37.570;2023-04-25T05:57:43;98895.81;;;30.42;18.84
70217;BME280;65567;55.684;37.570;2023-04-25T06:00:12;98887.91;;;30.41;19.20
70217;BME280;65567;55.684;37.570;2023-04-25T06:02:39;98896.63;;;30.49;19.00
70217;BME280;65567;55.684;37.570;2023-04-25T06:05:05;98886.84;;;30.55;18.95
70217;BME280;65567;55.684;37.570;2023-04-25T06:07:31;98884.03;;;30.69;18.36
70217;BME280;65567;55.684;37.570;2023-04-25T06:09:57;98879.38;;;30.83;18.40
70217;BME280;65567;55.684;37.570;2023-04-25T06:12:23;98874.50;;;30.91;18.27
70217;BME280;65567;55.684;37.570;2023-04-25T06:14:49;98875.22;;;30.80;18.24
70217;BME280;65567;55.684;37.570;2023-04-25T06:17:16;98867.19;;;30.67;18.41
70217;BME280;65567;55.684;37.570;2023-04-25T06:19:42;98869.00;;;30.41;18.54
70217;BME280;65567;55.684;37.570;2023-04-25T06:22:08;98863.63;;;30.73;18.46
70217;BME280;65567;55.684;37.570;2023-04-25T06:24:34;98856.34;;;31.05;17.96
70217;BME280;65567;55.684;37.570;2023-04-25T06:27:00;98851.72;;;30.48;17.97
70217;BME280;65567;55.684;37.570;2023-04-25T06:29:26;98866.16;;;29.50;18.71
70217;BME280;65567;55.684;37.570;2023-04-25T06:31:52;98859.94;;;29.56;19.11
70217;BME280;65567;55.684;37.570;2023-04-25T06:34:18;98863.25;;;28.91;19.54
70217;BME280;65567;55.684;37.570;2023-04-25T06:36:44;98856.13;;;28.50;19.81
70217;BME280;65567;55.684;37.570;2023-04-25T06:39:10;98860.25;;;28.52;19.59
70217;BME280;65567;55.684;37.570;2023-04-25T06:41:37;98852.78;;;28.48;19.19
70217;BME280;65567;55.684;37.570;2023-04-25T06:44:03;98862.69;;;27.92;19.73
70217;BME280;65567;55.684;37.570;2023-04-25T06:46:29;98865.72;;;27.69;19.80
70217;BME280;65567;55.684;37.570;2023-04-25T06:48:58;98858.75;;;27.88;19.89
70217;BME280;65567;55.684;37.570;2023-04-25T06:51:24;98869.56;;;28.43;19.51
70217;BME280;65567;55.684;37.570;2023-04-25T06:53:54;98860.56;;;29.05;18.72
70217;BME280;65567;55.684;37.570;2023-04-25T06:56:20;98864.09;;;29.39;18.54
70217;BME280;65567;55.684;37.570;2023-04-25T06:58:47;98865.03;;;29.84;17.85
70217;BME280;65567;55.684;37.570;2023-04-25T07:01:13;98860.59;;;30.10;17.94
70217;BME280;65567;55.684;37.570;2023-04-25T07:03:40;98852.34;;;30.44;17.62
70217;BME280;65567;55.684;37.570;2023-04-25T07:06:06;98855.13;;;30.69;17.19
70217;BME280;65567;55.684;37.570;2023-04-25T07:08:33;98864.63;;;30.40;16.78
70217;BME280;65567;55.684;37.570;2023-04-25T07:10:59;98870.31;;;29.53;17.57
70217;BME280;65567;55.684;37.570;2023-04-25T07:13:25;98856.22;;;29.30;17.86
70217;BME280;65567;55.684;37.570;2023-04-25T07:15:51;98860.34;;;29.53;17.89
70217;BME280;65567;55.684;37.570;2023-04-25T07:18:18;98853.41;;;29.91;17.80
70217;BME280;65567;55.684;37.570;2023-04-25T07:20:44;98864.03;;;29.72;18.51
70217;BME280;65567;55.684;37.570;2023-04-25T07:23:09;98857.13;;;29.96;18.38
70217;BME280;65567;55.684;37.570;2023-04-25T07:25:36;98857.13;;;29.96;18.09
70217;BME280;65567;55.684;37.570;2023-04-25T07:28:01;98864.25;;;29.71;18.08
70217;BME280;65567;55.684;37.570;2023-04-25T07:30:28;98853.28;;;29.59;18.15
70217;BME280;65567;55.684;37.570;2023-04-25T07:32:54;98852.78;;;29.95;17.82
70217;BME280;65567;55.684;37.570;2023-04-25T07:35:21;98849.28;;;30.33;17.95
70217;BME280;65567;55.684;37.570;2023-04-25T07:37:47;98861.09;;;30.78;17.70
70217;BME280;65567;55.684;37.570;2023-04-25T07:40:13;98853.38;;;30.43;17.44
70217;BME280;65567;55.684;37.570;2023-04-25T07:42:42;98859.75;;;30.16;17.72
70217;BME280;65567;55.684;37.570;2023-04-25T07:45:10;98868.03;;;29.16;17.86
70217;BME280;65567;55.684;37.570;2023-04-25T07:47:36;98863.41;;;28.08;19.60
70217;BME280;65567;55.684;37.570;2023-04-25T07:50:03;98866.63;;;27.26;20.54
70217;BME280;65567;55.684;37.570;2023-04-25T07:52:29;98854.03;;;27.33;20.12
70217;BME280;65567;55.684;37.570;2023-04-25T07:54:55;98859.13;;;27.43;19.91
70217;BME280;65567;55.684;37.570;2023-04-25T07:57:23;98867.09;;;27.08;20.30
70217;BME280;65567;55.684;37.570;2023-04-25T07:59:49;98862.63;;;26.35;21.11
70217;BME280;65567;55.684;37.570;2023-04-25T08:02:16;98863.59;;;26.13;21.62
70217;BME280;65567;55.684;37.570;2023-04-25T08:04:41;98852.31;;;26.02;21.89
70217;BME280;65567;55.684;37.570;2023-04-25T08:07:10;98874.91;;;26.08;21.48
70217;BME280;65567;55.684;37.570;2023-04-25T08:09:35;98878.50;;;26.30;21.43
70217;BME280;65567;55.684;37.570;2023-04-25T08:12:02;98857.13;;;26.22;21.63
70217;BME280;65567;55.684;37.570;2023-04-25T08:14:29;98859.38;;;26.77;20.90
70217;BME280;65567;55.684;37.570;2023-04-25T08:17:02;98904.25;;;26.61;20.58
70217;BME280;65567;55.684;37.570;2023-04-25T08:19:29;98859.63;;;26.45;20.75
70217;BME280;65567;55.684;37.570;2023-04-25T08:21:56;98862.81;;;26.70;20.34
70217;BME280;65567;55.684;37.570;2023-04-25T08:24:23;98860.63;;;26.59;20.53
70217;BME280;65567;55.684;37.570;2023-04-25T08:26:49;98853.66;;;26.28;20.27
70217;BME280;65567;55.684;37.570;2023-04-25T08:29:15;98855.19;;;26.16;20.54
70217;BME280;65567;55.684;37.570;2023-04-25T08:31:41;98861.75;;;26.50;20.49
70217;BME280;65567;55.684;37.570;2023-04-25T08:34:07;98860.56;;;26.96;20.54
70217;BME280;65567;55.684;37.570;2023-04-25T08:36:33;98842.75;;;27.16;19.71
70217;BME280;65567;55.684;37.570;2023-04-25T08:38:59;98832.94;;;26.59;21.10
70217;BME280;65567;55.684;37.570;2023-04-25T08:41:26;98855.72;;;26.26;21.81
70217;BME280;65567;55.684;37.570;2023-04-25T08:43:53;98840.50;;;26.33;21.60
70217;BME280;65567;55.684;37.570;2023-04-25T08:46:21;98829.28;;;26.66;21.51
70217;BME280;65567;55.684;37.570;2023-04-25T08:48:49;98844.63;;;27.16;21.16
70217;BME280;65567;55.684;37.570;2023-04-25T08:51:21;98839.13;;;27.31;20.55
70217;BME280;65567;55.684;37.570;2023-04-25T08:53:51;98835.38;;;26.02;22.01
70217;BME280;65567;55.684;37.570;2023-04-25T08:57:31;98833.00;;;25.92;21.77
70217;BME280;65567;55.684;37.570;2023-04-25T09:00:01;98830.94;;;24.96;22.94
70217;BME280;65567;55.684;37.570;2023-04-25T09:02:32;98857.66;;;25.04;22.16
70217;BME280;65567;55.684;37.570;2023-04-25T09:04:59;98833.91;;;24.63;22.54
70217;BME280;65567;55.684;37.570;2023-04-25T09:07:25;98817.34;;;24.51;22.81
70217;BME280;65567;55.684;37.570;2023-04-25T09:09:51;98826.47;;;25.12;22.70
70217;BME280;65567;55.684;37.570;2023-04-25T09:12:20;98821.97;;;25.72;21.40
70217;BME280;65567;55.684;37.570;2023-04-25T09:17:32;98818.19;;;26.33;21.15
70217;BME280;65567;55.684;37.570;2023-04-25T09:20:12;98803.75;;;26.55;20.83
70217;BME280;65567;55.684;37.570;2023-04-25T09:22:38;98797.63;;;26.83;20.87
70217;BME280;65567;55.684;37.570;2023-04-25T09:25:13;98802.78;;;27.07;21.38
70217;BME280;65567;55.684;37.570;2023-04-25T09:27:53;98805.09;;;27.16;21.47
70217;BME280;65567;55.684;37.570;2023-04-25T09:30:29;98796.09;;;27.59;20.48
70217;BME280;65567;55.684;37.570;2023-04-25T09:33:14;98799.03;;;27.71;19.87
70217;BME280;65567;55.684;37.570;2023-04-25T09:35:43;98793.34;;;26.67;20.84
70217;BME280;65567;55.684;37.570;2023-04-25T09:40:42;98790.66;;;26.46;21.06
70217;BME280;65567;55.684;37.570;2023-04-25T09:43:22;98790.00;;;26.22;21.05
70217;BME280;65567;55.684;37.570;2023-04-25T09:45:48;98783.56;;;26.38;21.62
70217;BME280;65567;55.684;37.570;2023-04-25T09:48:19;98797.81;;;27.10;20.50
70217;BME280;65567;55.684;37.570;2023-04-25T09:51:08;98772.88;;;27.23;20.11
70217;BME280;65567;55.684;37.570;2023-04-25T09:53:42;98778.66;;;25.90;21.00
70217;BME280;65567;55.684;37.570;2023-04-25T09:56:10;98781.06;;;25.85;21.16
70217;BME280;65567;55.684;37.570;2023-04-25T09:58:39;98784.63;;;26.22;20.65
70217;BME280;65567;55.684;37.570;2023-04-25T10:01:16;98786.81;;;26.55;20.42
70217;BME280;65567;55.684;37.570;2023-04-25T10:03:43;98782.22;;;26.27;20.53
70217;BME280;65567;55.684;37.570;2023-04-25T10:06:18;98760.41;;;25.64;22.27
70217;BME280;65567;55.684;37.570;2023-04-25T10:08:45;98781.56;;;26.25;21.54
70217;BME280;65567;55.684;37.570;2023-04-25T10:11:15;98776.38;;;25.87;21.15
70217;BME280;65567;55.684;37.570;2023-04-25T10:13:42;98765.25;;;25.90;21.64
70217;BME280;65567;55.684;37.570;2023-04-25T10:16:13;98768.38;;;26.30;21.29
70217;BME280;65567;55.684;37.570;2023-04-25T10:18:39;98765.72;;;25.94;20.95
70217;BME280;65567;55.684;37.570;2023-04-25T10:21:05;98760.22;;;26.17;21.61
70217;BME280;65567;55.684;37.570;2023-04-25T10:23:32;98779.47;;;25.90;21.10
70217;BME280;65567;55.684;37.570;2023-04-25T10:26:00;98763.91;;;25.64;21.39
70217;BME280;65567;55.684;37.570;2023-04-25T10:28:26;98763.19;;;24.87;21.90
70217;BME280;65567;55.684;37.570;2023-04-25T10:31:00;98768.75;;;24.39;23.02
70217;BME280;65567;55.684;37.570;2023-04-25T10:33:37;98756.13;;;24.48;22.46
70217;BME280;65567;55.684;37.570;2023-04-25T10:36:14;98749.66;;;25.04;22.96
70217;BME280;65567;55.684;37.570;2023-04-25T10:38:42;98743.59;;;25.40;21.71
70217;BME280;65567;55.684;37.570;2023-04-25T10:41:09;98738.47;;;25.30;21.92
70217;BME280;65567;55.684;37.570;2023-04-25T10:43:41;98734.78;;;25.31;24.71
70217;BME280;65567;55.684;37.570;2023-04-25T10:48:54;98732.38;;;25.06;22.45
70217;BME280;65567;55.684;37.570;2023-04-25T10:54:01;98735.31;;;24.35;24.08
70217;BME280;65567;55.684;37.570;2023-04-25T10:56:41;98726.16;;;24.06;29.20
70217;BME280;65567;55.684;37.570;2023-04-25T10:59:11;98730.16;;;24.11;24.38
70217;BME280;65567;55.684;37.570;2023-04-25T11:01:45;98727.59;;;24.40;24.84
70217;BME280;65567;55.684;37.570;2023-04-25T11:04:26;98718.44;;;24.35;25.93
70217;BME280;65567;55.684;37.570;2023-04-25T11:09:23;98712.09;;;24.89;24.15
70217;BME280;65567;55.684;37.570;2023-04-25T11:11:58;98710.91;;;24.77;23.34
70217;BME280;65567;55.684;37.570;2023-04-25T11:14:26;98705.78;;;24.44;24.27
70217;BME280;65567;55.684;37.570;2023-04-25T11:16:58;98708.28;;;24.68;26.56
70217;BME280;65567;55.684;37.570;2023-04-25T11:19:25;98696.34;;;24.56;23.63
70217;BME280;65567;55.684;37.570;2023-04-25T11:21:58;98696.50;;;23.53;23.98
70217;BME280;65567;55.684;37.570;2023-04-25T11:24:35;98700.78;;;23.31;24.05
70217;BME280;65567;55.684;37.570;2023-04-25T11:27:02;98684.47;;;23.09;24.53
70217;BME280;65567;55.684;37.570;2023-04-25T11:29:30;98688.47;;;23.05;24.83
70217;BME280;65567;55.684;37.570;2023-04-25T11:31:57;98681.50;;;22.96;25.02
70217;BME280;65567;55.684;37.570;2023-04-25T11:34:29;98678.78;;;23.13;24.79
70217;BME280;65567;55.684;37.570;2023-04-25T11:37:01;98672.44;;;23.22;25.19
70217;BME280;65567;55.684;37.570;2023-04-25T11:39:28;98674.00;;;23.39;24.74
70217;BME280;65567;55.684;37.570;2023-04-25T11:41:54;98659.38;;;23.27;24.73
70217;BME280;65567;55.684;37.570;2023-04-25T11:44:21;98664.31;;;22.99;24.96
70217;BME280;65567;55.684;37.570;2023-04-25T11:46:47;98666.44;;;23.12;24.86
70217;BME280;65567;55.684;37.570;2023-04-25T11:49:15;98665.88;;;22.60;25.53
70217;BME280;65567;55.684;37.570;2023-04-25T11:51:48;98661.25;;;22.37;25.80
70217;BME280;65567;55.684;37.570;2023-04-25T11:54:14;98652.88;;;22.65;25.58
70217;BME280;65567;55.684;37.570;2023-04-25T11:56:44;98656.00;;;22.77;25.43
70217;BME280;65567;55.684;37.570;2023-04-25T11:59:11;98655.16;;;22.93;25.23
70217;BME280;65567;55.684;37.570;2023-04-25T12:01:39;98660.09;;;23.13;25.28
70217;BME280;65567;55.684;37.570;2023-04-25T12:04:23;98646.06;;;23.10;24.99
70217;BME280;65567;55.684;37.570;2023-04-25T12:06:51;98653.47;;;22.92;25.28
70217;BME280;65567;55.684;37.570;2023-04-25T12:09:21;98635.50;;;22.69;25.37
70217;BME280;65567;55.684;37.570;2023-04-25T12:11:55;98646.47;;;22.91;25.48
70217;BME280;65567;55.684;37.570;2023-04-25T12:14:27;98625.28;;;23.29;25.64
70217;BME280;65567;55.684;37.570;2023-04-25T12:17:01;98637.69;;;23.53;25.14
70217;BME280;65567;55.684;37.570;2023-04-25T12:19:33;98636.66;;;23.31;25.14
70217;BME280;65567;55.684;37.570;2023-04-25T12:22:01;98618.06;;;23.38;24.99
70217;BME280;65567;55.684;37.570;2023-04-25T12:24:28;98616.22;;;23.70;24.82
70217;BME280;65567;55.684;37.570;2023-04-25T12:27:05;98617.88;;;23.94;24.67
70217;BME280;65567;55.684;37.570;2023-04-25T12:29:33;98620.44;;;24.11;25.00
70217;BME280;65567;55.684;37.570;2023-04-25T12:32:00;98618.16;;;24.22;24.85
70217;BME280;65567;55.684;37.570;2023-04-25T12:34:27;98606.84;;;23.89;24.82
70217;BME280;65567;55.684;37.570;2023-04-25T12:36:54;98604.31;;;23.49;25.12
70217;BME280;65567;55.684;37.570;2023-04-25T12:39:24;98599.22;;;23.31;25.35
70217;BME280;65567;55.684;37.570;2023-04-25T12:41:50;98604.34;;;23.01;25.72
70217;BME280;65567;55.684;37.570;2023-04-25T12:44:17;98583.47;;;23.05;25.72
70217;BME280;65567;55.684;37.570;2023-04-25T12:46:43;98587.06;;;22.81;26.15
70217;BME280;65567;55.684;37.570;2023-04-25T12:49:09;98587.06;;;22.81;26.37
70217;BME280;65567;55.684;37.570;2023-04-25T12:51:36;98571.00;;;22.97;25.45
70217;BME280;65567;55.684;37.570;2023-04-25T12:54:05;98570.31;;;23.03;27.49
70217;BME280;65567;55.684;37.570;2023-04-25T12:56:32;98578.34;;;22.95;26.41
70217;BME280;65567;55.684;37.570;2023-04-25T12:58:58;98567.97;;;23.00;26.62
70217;BME280;65567;55.684;37.570;2023-04-25T13:01:25;98567.38;;;23.21;26.78
70217;BME280;65567;55.684;37.570;2023-04-25T13:03:52;98554.53;;;23.71;26.02
70217;BME280;65567;55.684;37.570;2023-04-25T13:06:19;98560.56;;;23.65;25.35